Time;durP1;ratioP1;P1;durP2;ratioP2;P2;SDS_P1;SDS_P2;PMS_P1;PMS_P2;Temp;Humidity;BMP_temperature;BMP_pressure;BME280_temperature;BME280_humidity;BME280_pressure;Samples;Min_cycle;Max_cycle;Signal;HPM_P1;HPM_P2
2021/12/18 00:00:55;;;;;;;1.80;1.33;;;7.30;99.90;;;;;;5054191;28;20028;-68
2021/12/18 00:03:21;;;;;;;2.65;1.48;;;7.30;99.90;;;;;;5053904;28;20108;-68
2021/12/18 00:05:46;;;;;;;3.08;1.10;;;7.30;99.90;;;;;;5053861;28;20104;-68
2021/12/18 00:08:12;;;;;;;1.83;0.85;;;7.30;99.90;;;;;;5053874;28;20025;-68
2021/12/18 00:10:37;;;;;;;1.23;1.10;;;7.30;99.90;;;;;;5053758;28;20027;-68
2021/12/18 00:13:04;;;;;;;1.52;1.30;;;7.30;99.90;;;;;;5054042;28;20025;-68
2021/12/18 00:15:29;;;;;;;2.60;1.70;;;7.30;99.90;;;;;;5053722;28;20021;-68
2021/12/18 00:17:55;;;;;;;4.35;2.35;;;7.30;99.90;;;;;;5053945;28;20505;-68
2021/12/18 00:20:21;;;;;;;2.80;1.88;;;7.30;99.90;;;;;;5053820;28;20036;-68
2021/12/18 00:22:47;;;;;;;3.50;1.50;;;7.20;99.90;;;;;;5053931;28;20021;-68
2021/12/18 00:25:13;;;;;;;2.67;1.70;;;7.30;99.90;;;;;;5053555;28;20032;-68
2021/12/18 00:27:39;;;;;;;3.05;2.00;;;7.20;99.90;;;;;;5053698;28;20025;-68
2021/12/18 00:30:07;;;;;;;2.25;1.30;;;7.20;99.90;;;;;;5053514;28;20024;-68
2021/12/18 00:32:33;;;;;;;2.83;1.58;;;7.20;99.90;;;;;;5053267;28;20480;-68
2021/12/18 00:34:59;;;;;;;11.43;2.10;;;7.20;99.90;;;;;;5053428;28;20031;-68
2021/12/18 00:37:24;;;;;;;2.75;1.73;;;7.20;99.90;;;;;;5053151;28;20538;-68
2021/12/18 00:39:56;;;;;;;5.78;1.98;;;7.20;99.90;;;;;;5053427;28;20047;-68
2021/12/18 00:45:05;;;;;;;3.22;1.83;;;7.30;99.90;;;;;;5053809;28;20082;-68
2021/12/18 00:47:31;;;;;;;5.18;1.80;;;7.30;99.90;;;;;;5053795;28;20096;-68
2021/12/18 00:49:57;;;;;;;3.90;2.00;;;7.20;99.90;;;;;;5053482;28;20025;-68
2021/12/18 00:52:23;;;;;;;9.27;1.73;;;7.20;99.90;;;;;;5053034;28;20029;-68
2021/12/18 00:54:49;;;;;;;2.40;1.35;;;7.20;99.90;;;;;;5053749;28;20021;-68
2021/12/18 00:57:14;;;;;;;2.17;1.15;;;7.20;99.90;;;;;;5053392;28;20047;-67
2021/12/18 00:59:40;;;;;;;1.90;1.27;;;7.20;99.90;;;;;;5053127;28;20025;-68
2021/12/18 01:02:06;;;;;;;2.13;1.20;;;7.20;99.90;;;;;;5053049;28;20025;-68
2021/12/18 01:04:31;;;;;;;3.45;1.27;;;7.20;99.90;;;;;;5053212;28;20040;-68
2021/12/18 01:06:57;;;;;;;2.13;0.93;;;7.10;99.90;;;;;;5053303;28;20102;-68
2021/12/18 01:09:35;;;;;;;1.40;0.93;;;7.10;99.90;;;;;;5053302;28;20036;-68
2021/12/18 01:12:04;;;;;;;1.27;1.00;;;7.00;99.90;;;;;;5053220;28;20025;-68
2021/12/18 01:14:52;;;;;;;3.72;0.90;;;7.00;99.90;;;;;;5035099;28;20032;-68
2021/12/18 01:22:44;;;;;;;3.95;1.10;;;7.10;99.90;;;;;;5053114;28;20044;-68
2021/12/18 01:25:10;;;;;;;1.70;1.27;;;7.10;99.90;;;;;;5052856;28;20052;-68
2021/12/18 01:27:35;;;;;;;4.18;1.10;;;7.10;99.90;;;;;;5052847;28;20061;-68
2021/12/18 01:30:03;;;;;;;3.80;1.13;;;7.10;99.90;;;;;;5052861;28;20064;-68
2021/12/18 01:32:29;;;;;;;2.38;0.95;;;7.10;99.90;;;;;;5052704;28;20143;-68
2021/12/18 01:34:55;;;;;;;1.08;0.90;;;7.10;99.90;;;;;;5052782;28;20025;-68
2021/12/18 01:37:21;;;;;;;3.28;1.10;;;7.10;99.90;;;;;;5052713;28;20528;-68
2021/12/18 01:39:47;;;;;;;1.50;0.95;;;7.10;99.90;;;;;;5052736;28;20492;-68
2021/12/18 01:45:21;;;;;;;1.33;0.90;;;7.00;99.90;;;;;;5021785;28;20110;-68
2021/12/18 01:53:12;;;;;;;1.60;1.20;;;6.90;99.90;;;;;;5056460;28;20170;-68
2021/12/18 01:55:40;;;;;;;2.15;0.90;;;6.90;99.90;;;;;;5056671;28;20055;-68
2021/12/18 01:58:07;;;;;;;2.15;1.30;;;6.90;99.90;;;;;;5056602;28;20099;-68
2021/12/18 02:00:40;;;;;;;4.25;1.45;;;6.80;99.90;;;;;;5056521;28;20043;-68
2021/12/18 02:03:06;;;;;;;9.85;1.70;;;6.80;99.90;;;;;;5056274;28;20473;-68
2021/12/18 02:05:32;;;;;;;2.40;1.25;;;6.80;99.90;;;;;;5056434;28;20037;-68
2021/12/18 02:07:58;;;;;;;3.10;1.30;;;6.80;99.90;;;;;;5056153;28;20562;-68
2021/12/18 02:10:27;;;;;;;4.68;1.30;;;6.80;99.90;;;;;;5056074;28;20104;-68
2021/12/18 02:13:19;;;;;;;1.40;1.20;;;6.70;99.90;;;;;;5056110;28;20028;-68
2021/12/18 02:21:12;;;;;;;1.75;1.17;;;6.80;99.90;;;;;;5056233;28;20537;-68
2021/12/18 02:23:38;;;;;;;2.50;1.33;;;6.80;99.90;;;;;;5055833;28;20082;-68
2021/12/18 02:26:04;;;;;;;2.78;1.60;;;6.80;99.90;;;;;;5056122;28;20021;-68
2021/12/18 02:28:29;;;;;;;3.95;2.13;;;6.90;99.90;;;;;;5055735;28;20025;-68
2021/12/18 02:30:57;;;;;;;3.88;1.90;;;6.80;99.90;;;;;;5055670;28;20021;-68
2021/12/18 02:33:24;;;;;;;2.22;1.55;;;6.90;99.90;;;;;;5055954;28;20083;-68
2021/12/18 02:35:53;;;;;;;5.63;1.80;;;6.90;99.90;;;;;;5055943;28;20469;-68
2021/12/18 02:38:31;;;;;;;2.28;1.40;;;6.90;99.90;;;;;;5055613;28;20108;-68
2021/12/18 02:41:14;;;;;;;2.47;1.38;;;6.90;99.90;;;;;;5055728;28;20100;-68
2021/12/18 02:43:41;;;;;;;8.67;1.47;;;6.90;99.90;;;;;;5055519;28;20025;-68
2021/12/18 02:46:09;;;;;;;2.85;1.65;;;6.90;99.90;;;;;;5055465;28;20295;-68
2021/12/18 02:48:40;;;;;;;2.42;1.35;;;6.80;99.90;;;;;;5055467;28;20021;-68
2021/12/18 02:51:10;;;;;;;1.75;1.10;;;6.90;99.90;;;;;;5055006;28;20047;-68
2021/12/18 02:53:37;;;;;;;2.30;1.30;;;6.90;99.90;;;;;;5055552;28;20032;-68
2021/12/18 02:56:38;;;;;;;2.53;1.48;;;6.90;99.90;;;;;;5055440;28;20033;-68
2021/12/18 02:59:08;;;;;;;3.50;1.60;;;6.90;99.90;;;;;;5055447;28;20021;-68
2021/12/18 03:01:40;;;;;;;4.80;1.75;;;6.90;99.90;;;;;;5037137;28;20028;-68
2021/12/18 03:04:16;;;;;;;3.35;1.67;;;6.90;99.90;;;;;;5055347;28;20093;-68
2021/12/18 03:06:46;;;;;;;2.72;1.85;;;6.90;99.90;;;;;;5055091;28;20021;-68
2021/12/18 03:25:25;;;;;;;7.30;1.83;;;7.00;99.90;;;;;;5054959;28;20033;-68
2021/12/18 03:27:52;;;;;;;6.22;2.13;;;7.00;99.90;;;;;;5055052;28;20465;-69
2021/12/18 03:30:18;;;;;;;8.05;2.17;;;7.00;99.90;;;;;;5054632;28;20104;-68
2021/12/18 03:32:44;;;;;;;2.67;1.95;;;7.00;99.90;;;;;;5054614;28;20025;-68
2021/12/18 03:35:11;;;;;;;3.55;1.50;;;6.90;99.90;;;;;;5054803;28;20036;-68
2021/12/18 03:37:37;;;;;;;5.90;2.03;;;6.90;99.90;;;;;;5054521;28;20024;-68
2021/12/18 03:40:05;;;;;;;2.88;1.67;;;6.90;99.90;;;;;;5054527;28;20048;-68
2021/12/18 03:42:32;;;;;;;2.15;1.30;;;6.90;99.90;;;;;;5054383;28;20179;-68
2021/12/18 03:44:57;;;;;;;4.53;1.27;;;6.90;99.90;;;;;;5054300;28;20025;-68
2021/12/18 03:47:23;;;;;;;1.98;1.25;;;6.80;99.90;;;;;;5054546;28;20021;-68
2021/12/18 03:49:49;;;;;;;1.30;1.20;;;6.80;99.90;;;;;;5054304;28;20025;-68
2021/12/18 03:52:14;;;;;;;2.28;1.30;;;6.80;99.90;;;;;;5054014;28;20028;-68
2021/12/18 03:54:40;;;;;;;2.90;1.55;;;6.80;99.90;;;;;;5054161;28;20032;-68
2021/12/18 03:57:06;;;;;;;1.35;1.10;;;6.80;99.90;;;;;;5054092;28;20065;-68
2021/12/18 03:59:32;;;;;;;3.90;1.40;;;6.90;99.90;;;;;;5054072;28;20390;-68
2021/12/18 04:01:57;;;;;;;4.03;1.40;;;6.80;99.90;;;;;;5054247;28;20029;-68
2021/12/18 04:04:23;;;;;;;2.50;1.70;;;6.90;99.90;;;;;;5053939;28;20032;-68
2021/12/18 04:06:50;;;;;;;2.92;1.83;;;6.80;99.90;;;;;;5053951;28;20052;-68
2021/12/18 04:09:16;;;;;;;4.07;1.40;;;6.80;99.90;;;;;;5053931;28;20013;-68
2021/12/18 04:11:42;;;;;;;2.20;1.02;;;6.80;99.90;;;;;;5053733;28;20029;-68
2021/12/18 04:14:10;;;;;;;3.00;1.63;;;6.80;99.90;;;;;;5053667;28;20032;-68
2021/12/18 04:16:36;;;;;;;4.22;1.40;;;6.80;99.90;;;;;;5054042;28;20029;-68
2021/12/18 04:19:01;;;;;;;2.28;1.20;;;6.80;99.90;;;;;;5053742;28;20036;-68
2021/12/18 04:21:29;;;;;;;4.53;1.75;;;6.80;99.90;;;;;;5053881;28;20021;-68
2021/12/18 04:23:54;;;;;;;6.30;1.50;;;6.80;99.90;;;;;;5053839;28;20025;-68
2021/12/18 04:26:20;;;;;;;1.80;1.10;;;6.80;99.90;;;;;;5047356;28;20022;-68
2021/12/18 04:28:46;;;;;;;3.50;1.80;;;6.80;99.90;;;;;;5037487;28;20096;-68
2021/12/18 04:31:11;;;;;;;2.00;0.93;;;6.80;99.90;;;;;;5035391;28;20053;-68
2021/12/18 04:33:37;;;;;;;1.88;0.95;;;6.90;99.90;;;;;;5033589;28;20021;-68
2021/12/18 04:36:03;;;;;;;2.75;1.50;;;6.90;99.90;;;;;;5033504;28;20022;-68
2021/12/18 04:38:28;;;;;;;3.00;1.55;;;6.80;99.90;;;;;;5033455;28;20022;-68
2021/12/18 04:40:54;;;;;;;3.38;1.83;;;6.80;99.90;;;;;;5033669;28;20044;-68
2021/12/18 04:43:20;;;;;;;2.30;1.15;;;6.80;99.90;;;;;;5033343;28;20396;-68
2021/12/18 04:45:45;;;;;;;3.10;1.13;;;6.80;99.90;;;;;;5047324;28;20021;-68
2021/12/18 04:48:11;;;;;;;2.85;1.10;;;6.80;99.90;;;;;;5053289;28;20507;-68
2021/12/18 04:50:36;;;;;;;1.52;1.00;;;6.80;99.90;;;;;;5053204;28;20021;-68
2021/12/18 04:53:02;;;;;;;1.33;1.08;;;6.80;99.90;;;;;;5053241;28;20033;-68
2021/12/18 04:55:28;;;;;;;1.83;1.42;;;6.80;99.90;;;;;;5053197;28;20060;-68
2021/12/18 04:57:55;;;;;;;3.72;1.83;;;6.80;99.90;;;;;;5053146;28;20032;-68
2021/12/18 05:00:27;;;;;;;1.85;0.82;;;6.80;99.90;;;;;;5053049;28;20025;-68
2021/12/18 05:02:54;;;;;;;3.20;1.30;;;6.80;99.90;;;;;;5053165;28;20052;-68
2021/12/18 05:05:20;;;;;;;5.18;1.23;;;6.80;99.90;;;;;;5052993;28;20025;-68
2021/12/18 05:07:46;;;;;;;2.70;1.27;;;6.90;99.90;;;;;;5053332;28;20517;-68
2021/12/18 05:10:12;;;;;;;4.53;1.10;;;6.80;99.90;;;;;;5053154;28;20052;-68
2021/12/18 05:12:39;;;;;;;4.15;1.38;;;6.80;99.90;;;;;;5052932;28;20028;-68
2021/12/18 05:15:06;;;;;;;2.53;1.80;;;6.90;99.90;;;;;;5053151;28;20028;-68
2021/12/18 05:17:31;;;;;;;1.58;1.25;;;6.80;99.90;;;;;;5052880;28;20137;-68
2021/12/18 05:19:57;;;;;;;3.45;1.73;;;6.90;99.90;;;;;;5053215;28;20124;-68
2021/12/18 05:22:22;;;;;;;4.10;1.90;;;6.90;99.90;;;;;;5052666;28;20017;-68
2021/12/18 05:24:48;;;;;;;1.90;1.30;;;6.90;99.90;;;;;;5054449;28;20449;-68
2021/12/18 05:27:14;;;;;;;2.13;1.23;;;6.90;99.90;;;;;;5057110;28;20029;-68
2021/12/18 05:29:39;;;;;;;1.98;1.08;;;6.90;99.90;;;;;;5057140;28;20028;-68
2021/12/18 05:32:05;;;;;;;1.67;0.80;;;6.90;99.90;;;;;;5056788;28;20112;-68
2021/12/18 05:34:36;;;;;;;2.15;1.00;;;6.80;99.90;;;;;;5038934;28;20025;-68
2021/12/18 05:37:31;;;;;;;2.50;0.80;;;6.80;99.90;;;;;;5056858;28;20033;-68
2021/12/18 05:39:56;;;;;;;1.50;0.90;;;6.80;99.90;;;;;;5056998;28;20039;-68
2021/12/18 05:42:22;;;;;;;2.17;1.00;;;6.80;99.90;;;;;;5056628;28;20029;-68
2021/12/18 05:44:47;;;;;;;5.78;0.80;;;6.80;99.90;;;;;;5056738;28;20427;-68
2021/12/18 05:47:13;;;;;;;2.47;1.13;;;6.80;99.90;;;;;;5057098;28;20103;-68
2021/12/18 05:49:39;;;;;;;8.20;0.80;;;6.80;99.90;;;;;;5056550;28;20032;-68
2021/12/18 05:52:05;;;;;;;5.70;2.75;;;6.80;99.90;;;;;;5154591;22;20037;-73
2021/12/18 05:54:35;;;;;;;16.23;9.50;;;6.80;99.90;;;;;;5076432;28;20043;-72
2021/12/18 05:57:14;;;;;;;3.38;0.73;;;6.90;99.90;;;;;;5076446;28;20364;-73
2021/12/18 05:59:40;;;;;;;1.00;0.80;;;6.90;99.90;;;;;;5076716;28;20021;-72
2021/12/18 06:02:06;;;;;;;21.55;11.30;;;6.90;99.90;;;;;;5076198;28;20037;-72
2021/12/18 06:04:31;;;;;;;13.15;6.38;;;6.90;99.90;;;;;;5076211;28;20077;-73
2021/12/18 06:07:04;;;;;;;14.55;6.38;;;6.90;99.90;;;;;;5076126;28;20391;-73
2021/12/18 06:09:33;;;;;;;3.67;1.98;;;6.90;99.90;;;;;;5076452;28;20029;-72
2021/12/18 06:12:00;;;;;;;5.47;2.92;;;6.90;99.90;;;;;;5076075;28;20021;-72
2021/12/18 06:14:26;;;;;;;7.25;3.10;;;7.00;99.90;;;;;;5076083;28;20548;-72
2021/12/18 06:16:52;;;;;;;7.40;1.33;;;6.90;99.90;;;;;;5076270;28;20107;-72
2021/12/18 06:19:17;;;;;;;6.97;1.65;;;6.90;99.90;;;;;;5076001;28;20099;-72
2021/12/18 06:21:43;;;;;;;22.92;12.20;;;7.00;99.90;;;;;;5075986;28;20103;-73
2021/12/18 06:24:09;;;;;;;85.65;32.97;;;7.00;99.90;;;;;;5075816;28;20077;-72
2021/12/18 06:26:34;;;;;;;166.25;78.30;;;7.00;99.90;;;;;;5075884;28;20027;-72
2021/12/18 06:29:00;;;;;;;90.00;31.75;;;7.00;99.90;;;;;;5075725;28;20028;-73
2021/12/18 06:31:25;;;;;;;12.23;4.18;;;7.00;99.90;;;;;;5075733;28;20099;-73
2021/12/18 06:33:51;;;;;;;254.95;77.15;;;7.00;99.90;;;;;;5076001;28;20034;-72
2021/12/18 06:36:17;;;;;;;12.68;2.78;;;7.00;99.90;;;;;;5075272;28;20128;-73
2021/12/18 06:38:43;;;;;;;65.60;13.18;;;7.00;99.90;;;;;;5075885;28;20078;-73
2021/12/18 06:41:08;;;;;;;51.45;9.35;;;7.00;99.90;;;;;;5075941;28;20028;-72
2021/12/18 06:43:34;;;;;;;361.38;71.28;;;7.00;99.90;;;;;;5075524;28;20392;-73
2021/12/18 06:45:59;;;;;;;34.33;15.93;;;7.00;99.90;;;;;;5075526;28;20036;-72
2021/12/18 06:48:25;;;;;;;225.35;54.47;;;7.00;99.90;;;;;;5075738;28;20449;-73
2021/12/18 06:50:50;;;;;;;94.25;28.50;;;7.00;99.90;;;;;;5075705;28;20020;-72
2021/12/18 06:53:16;;;;;;;71.43;20.15;;;7.10;99.90;;;;;;5075315;28;20024;-73
2021/12/18 06:55:42;;;;;;;40.95;10.52;;;7.10;99.90;;;;;;5075345;28;20028;-72
2021/12/18 06:58:08;;;;;;;180.25;51.13;;;7.10;99.90;;;;;;5075243;28;20028;-73
2021/12/18 07:00:34;;;;;;;44.55;11.05;;;7.10;99.90;;;;;;5075421;28;20039;-73
2021/12/18 07:02:59;;;;;;;51.63;12.30;;;7.10;99.90;;;;;;5075240;28;20035;-72
2021/12/18 07:05:25;;;;;;;38.65;7.97;;;7.20;99.90;;;;;;5075108;28;20024;-72
2021/12/18 07:07:51;;;;;;;44.85;12.05;;;7.20;99.90;;;;;;5075191;28;20027;-73
2021/12/18 07:10:18;;;;;;;51.13;13.80;;;7.20;99.90;;;;;;5075108;28;20029;-73
2021/12/18 07:12:43;;;;;;;52.40;13.07;;;7.20;99.90;;;;;;5074718;28;20063;-73
2021/12/18 07:15:11;;;;;;;87.82;17.15;;;7.20;99.90;;;;;;5074969;28;20060;-72
2021/12/18 07:17:37;;;;;;;22.52;6.97;;;7.20;99.90;;;;;;5075129;28;20024;-73
2021/12/18 07:20:04;;;;;;;45.72;13.60;;;7.20;99.90;;;;;;5074823;28;20028;-72
2021/12/18 07:22:30;;;;;;;30.35;7.80;;;7.20;99.90;;;;;;5074711;28;20082;-73
2021/12/18 07:24:56;;;;;;;29.70;7.88;;;7.20;99.90;;;;;;5074691;28;20032;-72
2021/12/18 07:27:21;;;;;;;46.10;11.90;;;7.30;99.90;;;;;;5074890;28;20052;-73
2021/12/18 07:29:47;;;;;;;28.98;8.40;;;7.20;99.90;;;;;;5074646;28;20486;-72
2021/12/18 07:32:12;;;;;;;52.90;11.95;;;7.30;99.90;;;;;;5074517;28;20078;-73
2021/12/18 07:34:38;;;;;;;50.13;19.65;;;7.40;99.90;;;;;;5056678;28;20496;-72
2021/12/18 07:37:04;;;;;;;77.97;41.83;;;7.30;99.90;;;;;;5074372;28;20384;-73
2021/12/18 07:39:30;;;;;;;73.90;28.52;;;7.40;99.90;;;;;;5074471;28;20025;-73
2021/12/18 07:41:55;;;;;;;47.70;22.52;;;7.40;99.90;;;;;;5074305;28;20021;-73
2021/12/18 07:44:21;;;;;;;31.27;7.30;;;7.40;99.90;;;;;;5074299;28;20521;-73
2021/12/18 07:46:47;;;;;;;42.50;8.23;;;7.40;99.90;;;;;;5073582;28;20059;-73
2021/12/18 07:49:12;;;;;;;24.90;6.70;;;7.40;99.90;;;;;;5074217;28;20552;-73
2021/12/18 07:51:38;;;;;;;53.70;12.70;;;7.50;99.90;;;;;;5074065;28;20037;-73
2021/12/18 07:54:05;;;;;;;38.28;10.00;;;7.50;99.90;;;;;;5074111;28;20025;-73
2021/12/18 07:56:31;;;;;;;28.60;7.82;;;7.50;99.90;;;;;;5074379;28;20021;-73
2021/12/18 07:58:57;;;;;;;27.13;5.47;;;7.60;99.90;;;;;;5074407;28;20055;-73
2021/12/18 08:01:23;;;;;;;41.88;7.88;;;7.60;99.90;;;;;;5056045;28;20025;-73
2021/12/18 08:03:49;;;;;;;43.00;6.30;;;7.60;99.90;;;;;;5073908;28;20514;-73
2021/12/18 08:06:15;;;;;;;41.22;7.60;;;7.70;99.90;;;;;;5073908;28;20029;-72
2021/12/18 08:08:41;;;;;;;38.28;5.43;;;7.70;99.90;;;;;;5074171;28;20032;-72
2021/12/18 08:11:06;;;;;;;39.33;6.38;;;7.70;99.90;;;;;;5073820;28;20021;-72
2021/12/18 08:13:32;;;;;;;35.95;6.25;;;7.80;99.90;;;;;;5073794;28;20024;-73
2021/12/18 08:15:58;;;;;;;57.53;12.60;;;7.80;99.90;;;;;;5073748;28;20028;-72
2021/12/18 08:18:23;;;;;;;36.95;6.78;;;7.80;99.90;;;;;;5073731;28;20039;-72
2021/12/18 08:20:49;;;;;;;43.60;6.15;;;7.80;99.90;;;;;;5073436;28;20029;-73
2021/12/18 08:23:15;;;;;;;47.92;6.03;;;7.90;99.90;;;;;;5073618;28;20024;-73
2021/12/18 08:25:41;;;;;;;29.40;5.32;;;7.80;99.90;;;;;;5073318;28;20067;-73
2021/12/18 08:28:07;;;;;;;36.35;6.15;;;7.80;99.90;;;;;;5055389;28;20048;-73
2021/12/18 08:30:35;;;;;;;34.55;5.40;;;7.80;99.90;;;;;;5073452;28;20025;-72
2021/12/18 08:33:01;;;;;;;29.38;5.55;;;7.90;99.90;;;;;;5073494;28;20028;-73
2021/12/18 08:35:29;;;;;;;40.95;5.45;;;7.90;99.90;;;;;;5074014;28;20380;-72
2021/12/18 08:37:56;;;;;;;26.40;4.40;;;7.90;99.90;;;;;;5073711;28;20447;-73
2021/12/18 08:40:23;;;;;;;32.47;6.57;;;7.90;99.90;;;;;;5073275;28;20111;-72
2021/12/18 08:42:48;;;;;;;61.13;7.95;;;7.90;99.90;;;;;;5073271;28;20025;-73
2021/12/18 08:45:15;;;;;;;27.25;5.10;;;8.00;99.90;;;;;;5073310;28;20028;-72
2021/12/18 08:47:41;;;;;;;37.38;5.00;;;7.90;99.90;;;;;;5073366;28;20035;-73
2021/12/18 08:50:10;;;;;;;36.45;5.22;;;7.90;99.90;;;;;;5073577;28;20063;-72
2021/12/18 08:52:36;;;;;;;29.35;4.15;;;7.90;99.90;;;;;;5073146;28;20526;-73
2021/12/18 08:55:04;;;;;;;38.85;5.78;;;7.90;99.90;;;;;;5055253;28;20037;-72
2021/12/18 08:57:29;;;;;;;42.33;6.45;;;7.90;99.90;;;;;;5073242;28;20067;-72
2021/12/18 08:59:55;;;;;;;40.33;5.43;;;8.00;99.90;;;;;;5073444;28;20113;-73
2021/12/18 09:02:21;;;;;;;42.03;6.68;;;7.90;99.90;;;;;;5073128;28;20036;-72
2021/12/18 09:04:47;;;;;;;43.85;6.70;;;8.00;99.90;;;;;;5073248;28;20024;-73
2021/12/18 09:07:13;;;;;;;42.63;6.10;;;8.00;99.90;;;;;;5073100;28;20503;-72
2021/12/18 09:09:39;;;;;;;48.25;6.55;;;8.00;99.90;;;;;;5073417;28;20033;-72
2021/12/18 09:12:06;;;;;;;52.03;7.88;;;8.00;99.90;;;;;;5072847;28;20024;-73
2021/12/18 09:14:31;;;;;;;27.85;6.05;;;8.10;99.90;;;;;;5055465;28;20039;-73
2021/12/18 09:16:57;;;;;;;40.22;7.50;;;8.10;99.90;;;;;;5072779;28;20037;-73
2021/12/18 09:19:23;;;;;;;73.05;9.00;;;8.20;99.90;;;;;;5073001;28;20104;-72
2021/12/18 09:21:48;;;;;;;51.72;7.65;;;8.20;99.90;;;;;;5072976;28;20484;-73
2021/12/18 09:24:14;;;;;;;45.13;6.47;;;8.30;99.90;;;;;;5072807;28;20044;-73
2021/12/18 09:26:39;;;;;;;49.75;8.13;;;8.30;99.90;;;;;;5072944;28;20183;-72
2021/12/18 09:29:05;;;;;;;49.20;7.97;;;8.30;99.90;;;;;;5072945;28;20492;-72
2021/12/18 09:31:30;;;;;;;46.65;7.78;;;8.30;99.90;;;;;;5072875;28;20025;-73
2021/12/18 09:33:56;;;;;;;44.53;6.80;;;8.30;99.90;;;;;;5072834;28;20027;-72
2021/12/18 09:36:21;;;;;;;47.75;7.05;;;8.40;99.90;;;;;;5073087;28;20159;-73
2021/12/18 09:38:47;;;;;;;47.65;7.70;;;8.30;99.90;;;;;;5072779;28;20090;-72
2021/12/18 09:41:13;;;;;;;38.00;7.90;;;8.40;99.90;;;;;;5072688;28;20029;-72
2021/12/18 09:43:39;;;;;;;37.47;6.95;;;8.40;99.90;;;;;;5072681;28;20033;-72
2021/12/18 09:46:11;;;;;;;39.78;7.75;;;8.40;99.90;;;;;;5072707;28;20021;-73
2021/12/18 09:48:38;;;;;;;53.08;9.02;;;8.50;99.90;;;;;;5072738;28;20031;-73
2021/12/18 09:51:09;;;;;;;31.80;7.72;;;8.50;99.90;;;;;;5072334;28;20025;-73
2021/12/18 09:53:35;;;;;;;59.28;8.45;;;8.50;99.90;;;;;;5072671;28;20020;-73
2021/12/18 09:56:04;;;;;;;46.53;8.23;;;8.50;99.90;;;;;;5072858;28;20036;-73
2021/12/18 09:58:30;;;;;;;60.22;8.07;;;8.60;99.90;;;;;;5072492;28;20060;-73
2021/12/18 10:00:56;;;;;;;57.92;8.77;;;8.60;99.90;;;;;;5072469;28;20044;-73
2021/12/18 10:03:38;;;;;;;56.60;8.13;;;8.60;99.90;;;;;;5072552;28;20128;-72
2021/12/18 10:06:33;;;;;;;48.35;7.13;;;8.60;99.90;;;;;;5072841;28;20052;-73
2021/12/18 10:08:59;;;;;;;62.50;6.90;;;8.70;99.90;;;;;;5054645;28;20025;-72
2021/12/18 10:11:25;;;;;;;48.15;9.02;;;8.70;99.90;;;;;;5074831;28;20032;-73
2021/12/18 10:13:56;;;;;;;51.30;8.40;;;8.70;99.90;;;;;;5076106;28;20067;-73
2021/12/18 10:16:23;;;;;;;48.17;7.47;;;8.70;99.90;;;;;;5076015;28;20025;-73
2021/12/18 10:18:50;;;;;;;55.83;7.40;;;8.70;99.90;;;;;;5057974;28;20112;-73
2021/12/18 10:21:22;;;;;;;56.90;7.63;;;8.80;99.90;;;;;;5075905;28;20044;-73
2021/12/18 10:23:49;;;;;;;55.85;8.02;;;8.80;99.90;;;;;;5057989;28;20028;-72
2021/12/18 10:26:47;;;;;;;49.60;7.32;;;8.80;99.90;;;;;;5075868;28;20071;-73
2021/12/18 10:29:27;;;;;;;60.35;9.40;;;8.80;99.90;;;;;;5035950;28;20032;-72
2021/12/18 10:31:54;;;;;;;53.70;8.30;;;8.80;99.90;;;;;;5075488;28;20422;-72
2021/12/18 10:34:25;;;;;;;43.40;7.93;;;8.80;99.90;;;;;;5075752;28;20024;-72
2021/12/18 10:37:22;;;;;;;40.90;7.22;;;8.80;99.90;;;;;;5075742;28;20025;-72
2021/12/18 10:39:50;;;;;;;47.45;7.40;;;8.80;99.90;;;;;;5075996;28;20448;-72
2021/12/18 10:42:21;;;;;;;60.38;8.05;;;8.80;99.90;;;;;;5075843;28;20059;-72
2021/12/18 10:45:02;;;;;;;59.65;8.85;;;8.70;99.90;;;;;;5075849;28;20031;-72
2021/12/18 10:47:50;;;;;;;59.35;7.55;;;8.80;99.90;;;;;;5075812;28;20024;-72
2021/12/18 10:50:27;;;;;;;46.28;7.00;;;8.70;99.90;;;;;;5075815;28;20020;-72
2021/12/18 10:53:12;;;;;;;60.80;9.48;;;8.60;99.90;;;;;;5075385;28;20039;-72
2021/12/18 10:55:50;;;;;;;53.28;8.80;;;8.70;99.90;;;;;;5075598;28;20412;-72
2021/12/18 10:58:24;;;;;;;55.13;8.38;;;8.70;99.90;;;;;;5075313;28;20495;-73
2021/12/18 11:01:03;;;;;;;61.30;9.07;;;8.80;99.90;;;;;;5075523;28;20479;-72
2021/12/18 11:03:29;;;;;;;52.45;7.07;;;8.80;99.90;;;;;;5075276;28;20032;-72
2021/12/18 11:06:04;;;;;;;50.33;8.15;;;8.90;99.90;;;;;;5075467;28;20035;-72
2021/12/18 11:08:30;;;;;;;62.20;8.45;;;8.90;99.90;;;;;;5075112;28;20021;-72
2021/12/18 11:13:38;;;;;;;47.17;6.68;;;8.90;99.90;;;;;;5074975;28;20083;-72
2021/12/18 11:13:48;;;;;;;66.00;8.30;;;9.00;99.90;;;;;;5074750;28;20530;-72
2021/12/18 11:16:16;;;;;;;50.80;9.65;;;9.00;99.90;;;;;;5075273;28;20115;-72
2021/12/18 11:18:42;;;;;;;40.00;8.70;;;9.00;99.90;;;;;;5075165;28;20020;-72
2021/12/18 11:21:08;;;;;;;41.35;7.40;;;9.10;99.90;;;;;;5056832;28;20031;-72
2021/12/18 11:24:01;;;;;;;48.28;8.40;;;9.10;99.90;;;;;;5073940;28;20021;-72
2021/12/18 11:26:41;;;;;;;41.40;7.30;;;9.20;99.90;;;;;;5075138;28;20013;-72
2021/12/18 11:29:31;;;;;;;46.42;8.52;;;9.20;99.90;;;;;;5075056;28;20070;-72
2021/12/18 11:31:57;;;;;;;53.33;10.25;;;9.20;99.90;;;;;;5074200;28;20483;-72
2021/12/18 11:34:22;;;;;;;37.42;6.90;;;9.20;99.90;;;;;;5074639;28;20034;-72
2021/12/18 11:36:51;;;;;;;40.53;7.22;;;9.30;99.90;;;;;;5075150;28;20024;-72
2021/12/18 11:39:20;;;;;;;37.15;6.70;;;9.30;99.90;;;;;;5074766;28;20447;-72
2021/12/18 11:41:48;;;;;;;47.15;8.88;;;9.30;99.90;;;;;;5056538;28;20461;-72
2021/12/18 11:44:29;;;;;;;41.60;7.10;;;9.30;99.90;;;;;;5074352;28;20828;-72
2021/12/18 11:46:55;;;;;;;43.88;6.05;;;9.30;99.90;;;;;;5074959;28;20075;-72
2021/12/18 11:49:25;;;;;;;26.88;6.07;;;9.40;99.90;;;;;;5074359;28;20472;-72
2021/12/18 11:51:59;;;;;;;27.83;5.10;;;9.40;99.90;;;;;;5074291;28;20040;-72
2021/12/18 11:54:58;;;;;;;44.85;6.93;;;9.40;99.90;;;;;;5074259;28;20547;-72
2021/12/18 11:57:40;;;;;;;48.17;7.35;;;9.50;99.90;;;;;;5056331;28;20028;-72
2021/12/18 12:00:17;;;;;;;39.50;6.78;;;9.40;99.90;;;;;;5074353;28;20070;-72
2021/12/18 12:02:48;;;;;;;36.13;5.15;;;9.50;99.90;;;;;;5074025;28;20460;-72
2021/12/18 12:05:18;;;;;;;52.25;7.38;;;9.50;99.90;;;;;;5074090;28;20041;-72
2021/12/18 12:07:45;;;;;;;37.67;5.45;;;9.50;99.90;;;;;;5074120;28;20464;-72
2021/12/18 12:10:48;;;;;;;44.65;6.32;;;9.50;99.90;;;;;;5073879;28;20464;-72
2021/12/18 12:13:13;;;;;;;36.70;5.57;;;9.50;99.90;;;;;;5073841;28;20103;-72
2021/12/18 12:15:51;;;;;;;38.22;5.82;;;9.50;99.90;;;;;;5074033;28;20064;-72
2021/12/18 12:18:17;;;;;;;39.13;5.68;;;9.50;99.90;;;;;;5073713;28;20035;-72
2021/12/18 12:20:47;;;;;;;29.02;5.32;;;9.60;99.90;;;;;;5073644;28;20029;-72
2021/12/18 12:23:14;;;;;;;49.03;6.20;;;9.50;99.90;;;;;;5073862;28;20071;-72
2021/12/18 12:25:41;;;;;;;47.83;7.72;;;9.60;99.90;;;;;;5055723;28;20036;-72
2021/12/18 12:28:17;;;;;;;33.35;5.50;;;9.50;99.90;;;;;;5074143;28;20547;-72
2021/12/18 12:31:05;;;;;;;37.40;5.35;;;9.60;99.90;;;;;;5073467;28;20034;-72
2021/12/18 12:33:34;;;;;;;34.00;5.90;;;9.70;99.90;;;;;;5073465;28;20028;-72
2021/12/18 12:36:10;;;;;;;30.92;6.97;;;9.70;99.90;;;;;;5073710;28;20028;-73
2021/12/18 12:38:57;;;;;;;39.70;7.93;;;9.80;99.90;;;;;;5073539;28;20134;-73
2021/12/18 12:41:24;;;;;;;35.50;5.97;;;9.80;99.90;;;;;;5073613;28;20029;-72
2021/12/18 12:43:51;;;;;;;37.22;4.80;;;9.80;99.90;;;;;;5073273;28;20024;-72
2021/12/18 12:46:18;;;;;;;47.42;6.68;;;9.90;99.90;;;;;;5073223;28;20380;-72
2021/12/18 12:49:09;;;;;;;25.60;4.45;;;9.90;99.90;;;;;;5073541;28;20388;-72
2021/12/18 12:51:58;;;;;;;34.88;5.35;;;9.90;99.90;;;;;;5073403;28;20452;-72
2021/12/18 12:54:41;;;;;;;41.78;5.38;;;10.00;99.90;;;;;;5066903;28;20036;-72
2021/12/18 12:57:22;;;;;;;39.25;6.45;;;10.10;99.90;;;;;;5055254;28;20502;-72
2021/12/18 12:59:48;;;;;;;26.90;5.30;;;10.10;99.90;;;;;;5073176;28;20573;-72
2021/12/18 13:02:15;;;;;;;43.47;6.90;;;10.10;99.90;;;;;;5073359;28;20025;-72
2021/12/18 13:04:40;;;;;;;44.95;6.10;;;10.20;99.90;;;;;;5072903;28;20036;-72
2021/12/18 13:07:07;;;;;;;38.75;5.80;;;10.30;99.90;;;;;;5073400;28;20028;-72
2021/12/18 13:09:33;;;;;;;34.05;5.50;;;10.40;99.90;;;;;;5073055;28;20017;-72
2021/12/18 13:12:01;;;;;;;33.25;4.82;;;10.50;99.90;;;;;;5072973;28;20025;-72
2021/12/18 13:14:35;;;;;;;37.63;6.72;;;10.50;99.90;;;;;;5073320;28;20024;-72
2021/12/18 13:17:01;;;;;;;32.38;5.72;;;10.50;99.90;;;;;;5073098;28;20024;-72
2021/12/18 13:19:27;;;;;;;33.55;6.10;;;10.40;99.90;;;;;;5073316;28;20499;-72
2021/12/18 13:21:52;;;;;;;31.13;6.10;;;10.50;99.90;;;;;;5072937;28;20102;-72
2021/12/18 13:24:18;;;;;;;30.63;4.85;;;10.30;99.90;;;;;;5072944;28;20099;-72
2021/12/18 13:26:45;;;;;;;30.60;6.22;;;10.20;99.90;;;;;;5073201;28;20024;-72
2021/12/18 13:29:20;;;;;;;49.47;6.25;;;10.20;99.90;;;;;;5073183;28;20487;-72
2021/12/18 13:31:52;;;;;;;32.60;5.05;;;10.00;99.90;;;;;;5072975;28;20460;-72
2021/12/18 13:34:21;;;;;;;35.93;5.33;;;9.70;99.90;;;;;;5073241;28;20035;-72
2021/12/18 13:36:50;;;;;;;33.65;5.22;;;9.40;99.90;;;;;;5073156;28;20028;-72